Time;durP1;ratioP1;P1;durP2;ratioP2;P2;SDS_P1;SDS_P2;PMS_P1;PMS_P2;Temp;Humidity;BMP_temperature;BMP_pressure;BME280_temperature;BME280_humidity;BME280_pressure;Samples;Min_cycle;Max_cycle;Signal;HPM_P1;HPM_P2
2023/01/09 00:01:49;;;;;;;1.38;1.05;;;;;;;9.30;97.18;98911.38;5042177;28;20037;-67
2023/01/09 00:04:15;;;;;;;2.20;1.40;;;;;;;9.20;97.93;98914.84;5031074;28;20052;-68
2023/01/09 00:06:42;;;;;;;2.00;1.08;;;;;;;9.16;97.65;98918.69;5039247;28;20044;-68
2023/01/09 00:09:08;;;;;;;1.10;0.98;;;;;;;9.29;97.40;98920.56;5045456;28;20509;-68
2023/01/09 00:11:34;;;;;;;1.23;0.90;;;;;;;9.39;96.35;98906.34;5028248;28;20029;-68
2023/01/09 00:14:00;;;;;;;1.55;1.05;;;;;;;9.23;97.32;98907.94;5030332;28;20047;-69
2023/01/09 00:16:25;;;;;;;0.73;0.73;;;;;;;9.10;97.85;98907.59;5031830;28;20076;-68
2023/01/09 00:18:52;;;;;;;1.05;0.85;;;;;;;9.10;97.82;98904.91;5028140;28;20054;-70
2023/01/09 00:21:18;;;;;;;2.30;1.10;;;;;;;9.14;97.21;98894.91;5030571;28;20041;-70
2023/01/09 00:23:43;;;;;;;1.40;0.80;;;;;;;9.26;96.46;98885.66;5031203;28;20025;-69
2023/01/09 00:26:18;;;;;;;1.90;1.20;;;;;;;9.12;97.58;98883.78;5027056;28;20164;-67
2023/01/09 00:28:45;;;;;;;2.42;1.05;;;;;;;9.08;97.75;98880.34;5025537;28;20061;-69
2023/01/09 00:31:11;;;;;;;1.08;0.95;;;;;;;9.02;98.01;98869.25;5030278;28;20704;-69
2023/01/09 00:33:47;;;;;;;1.52;1.13;;;;;;;9.03;98.05;98878.84;5034583;28;20060;-68
2023/01/09 00:36:13;;;;;;;1.25;1.00;;;;;;;9.05;97.98;98873.09;5036528;28;20042;-68
2023/01/09 00:38:39;;;;;;;1.58;1.10;;;;;;;8.87;98.96;98875.81;5028539;28;20031;-68
2023/01/09 00:41:09;;;;;;;1.25;1.00;;;;;;;9.06;97.51;98877.28;5030549;28;20083;-69
2023/01/09 00:43:43;;;;;;;2.30;0.98;;;;;;;9.06;97.12;98877.28;5031451;28;20043;-70
2023/01/09 00:46:10;;;;;;;1.98;1.30;;;;;;;9.03;97.50;98862.75;5024470;28;20048;-68
2023/01/09 00:48:39;;;;;;;1.38;1.27;;;;;;;8.93;98.78;98868.13;5031894;28;20152;-69
2023/01/09 00:51:07;;;;;;;1.38;1.10;;;;;;;9.03;98.53;98868.13;5031128;28;20040;-69
2023/01/09 00:53:35;;;;;;;1.67;1.13;;;;;;;9.09;97.98;98863.88;5029560;28;20037;-68
2023/01/09 00:56:05;;;;;;;1.00;0.90;;;;;;;8.99;99.83;98870.03;5022647;28;20040;-69
2023/01/09 00:58:32;;;;;;;1.25;1.10;;;;;;;9.07;99.10;98860.81;5029366;28;20465;-68
2023/01/09 01:00:57;;;;;;;1.13;1.00;;;;;;;8.93;99.26;98858.16;5029700;28;20029;-70
2023/01/09 01:03:23;;;;;;;3.75;1.38;;;;;;;8.94;99.78;98864.31;5031453;28;20025;-67
2023/01/09 01:08:32;;;;;;;3.50;1.48;;;;;;;9.07;99.25;98863.50;5031593;28;20037;-68
2023/01/09 01:10:57;;;;;;;0.82;0.82;;;;;;;9.21;99.06;98851.16;5030285;28;20033;-68
2023/01/09 01:13:23;;;;;;;1.73;1.38;;;;;;;9.14;98.87;98856.59;5031092;28;20053;-67
2023/01/09 01:15:48;;;;;;;1.40;1.23;;;;;;;9.10;99.09;98849.28;5031057;28;20120;-68
2023/01/09 01:18:14;;;;;;;0.88;0.85;;;;;;;9.24;98.61;98853.84;5028366;28;20060;-69
2023/01/09 01:20:42;;;;;;;1.13;0.90;;;;;;;9.22;97.63;98861.53;5031629;28;20095;-66
2023/01/09 01:23:07;;;;;;;1.98;1.30;;;;;;;9.22;98.28;98844.63;5024432;28;20062;-66
2023/01/09 01:25:39;;;;;;;1.15;1.08;;;;;;;9.22;97.74;98855.38;5027227;28;20656;-68
2023/01/09 01:28:06;;;;;;;1.67;1.35;;;;;;;9.09;97.68;98855.81;5026246;28;20049;-69
2023/01/09 01:30:32;;;;;;;2.53;0.98;;;;;;;9.02;98.86;98855.06;5028872;28;20087;-67
2023/01/09 01:32:57;;;;;;;2.97;1.38;;;;;;;9.05;98.19;98836.28;5030330;28;20041;-67
2023/01/09 01:35:23;;;;;;;1.70;1.20;;;;;;;8.99;98.57;98842.41;5036814;28;20041;-69
2023/01/09 01:37:48;;;;;;;1.65;1.42;;;;;;;9.16;98.26;98846.97;5040210;28;20036;-67
2023/01/09 01:40:15;;;;;;;2.08;1.52;;;;;;;9.17;98.04;98850.41;5047164;28;20040;-67
2023/01/09 01:42:49;;;;;;;2.53;1.30;;;;;;;9.07;98.07;98844.72;5036296;28;20053;-68
2023/01/09 01:45:21;;;;;;;2.63;1.52;;;;;;;9.13;98.95;98841.59;5043011;28;20406;-66
2023/01/09 01:48:01;;;;;;;1.60;1.15;;;;;;;9.03;98.53;98843.19;5034262;28;20480;-67
2023/01/09 01:50:40;;;;;;;1.60;1.33;;;;;;;9.19;99.05;98837.38;5039641;28;20037;-69
2023/01/09 01:53:14;;;;;;;1.85;1.00;;;;;;;9.26;97.94;98831.97;5030890;28;20078;-67
2023/01/09 01:56:23;;;;;;;1.50;1.40;;;;;;;9.19;98.24;98829.31;5028048;28;20144;-69
2023/01/09 01:59:04;;;;;;;2.28;1.30;;;;;;;9.30;98.23;98824.66;5019357;28;20046;-66
2023/01/09 02:01:33;;;;;;;1.40;1.17;;;;;;;9.28;97.83;98819.69;5028423;28;20029;-70
2023/01/09 02:04:01;;;;;;;2.42;1.60;;;;;;;9.26;98.95;98813.16;5027397;28;20087;-68
2023/01/09 02:06:28;;;;;;;1.45;1.23;;;;;;;9.30;98.46;98819.28;5029816;28;20044;-67
2023/01/09 02:08:54;;;;;;;1.05;0.98;;;;;;;9.33;98.06;98811.19;5030468;28;20044;-68
2023/01/09 02:11:20;;;;;;;1.75;1.50;;;;;;;9.44;98.42;98803.09;5028993;28;20033;-68
2023/01/09 02:13:46;;;;;;;2.55;1.08;;;;;;;9.48;97.44;98801.94;5022932;28;20120;-69
2023/01/09 02:16:33;;;;;;;1.23;0.95;;;;;;;9.48;98.02;98801.16;5020031;28;20040;-67
2023/01/09 02:19:20;;;;;;;3.22;1.98;;;;;;;9.39;97.20;98800.84;5031406;28;20037;-67
2023/01/09 02:22:11;;;;;;;0.85;0.80;;;;;;;9.34;98.27;98803.91;5033691;28;20034;-68
2023/01/09 02:24:48;;;;;;;1.73;1.35;;;;;;;9.40;97.89;98795.06;5017747;28;20042;-67
2023/01/09 02:27:32;;;;;;;1.00;0.98;;;;;;;9.44;97.71;98786.97;5038240;28;20029;-68
2023/01/09 02:30:39;;;;;;;2.05;1.13;;;;;;;9.39;96.89;98790.09;5032502;28;20041;-69
2023/01/09 02:33:23;;;;;;;1.38;1.15;;;;;;;9.26;97.95;98791.66;4981484;28;20046;-68
2023/01/09 02:36:03;;;;;;;2.72;1.38;;;;;;;9.07;98.87;98785.63;4981097;28;20760;-68
2023/01/09 02:38:29;;;;;;;1.48;1.15;;;;;;;9.27;98.31;98782.47;5010799;28;20041;-70
2023/01/09 02:40:57;;;;;;;2.10;1.30;;;;;;;9.18;98.46;98779.44;5029705;28;20548;-70
2023/01/09 02:43:24;;;;;;;2.65;1.30;;;;;;;9.26;98.10;98780.94;5028039;28;20037;-71
2023/01/09 02:45:49;;;;;;;3.50;1.80;;;;;;;9.30;97.72;98777.06;5022873;28;20036;-69
2023/01/09 02:48:15;;;;;;;2.20;1.55;;;;;;;9.24;97.76;98778.66;5031019;28;20038;-68
2023/01/09 02:50:46;;;;;;;2.88;1.40;;;;;;;9.17;98.47;98777.91;5033436;28;20482;-68
2023/01/09 02:53:28;;;;;;;;;;;;;;;9.32;97.73;98784.75;5047249;28;20521;-67
2023/01/09 02:56:07;;;;;;;1.35;0.75;;;;;;;9.31;97.32;98775.16;5046622;28;19920;-69
2023/01/09 02:58:38;;;;;;;1.77;1.15;;;;;;;9.33;97.90;98770.16;5032546;28;20033;-68
2023/01/09 03:01:31;;;;;;;1.40;1.30;;;;;;;9.39;97.24;98774.72;5022084;28;20041;-67
2023/01/09 03:04:42;;;;;;;2.10;1.38;;;;;;;9.19;97.50;98773.69;5029728;28;20056;-69
2023/01/09 03:07:21;;;;;;;1.60;1.17;;;;;;;9.04;99.09;98777.56;4980581;28;20684;-69
2023/01/09 03:09:50;;;;;;;2.33;1.30;;;;;;;9.13;98.75;98774.47;5026899;28;20204;-68
2023/01/09 03:12:21;;;;;;;2.42;1.45;;;;;;;9.26;97.96;98762.91;5027749;28;20037;-68
2023/01/09 03:14:49;;;;;;;1.23;1.02;;;;;;;9.19;98.50;98764.88;5028360;28;20037;-69
2023/01/09 03:17:28;;;;;;;1.05;0.93;;;;;;;9.28;97.09;98765.19;5029963;28;20033;-67
2023/01/09 03:19:55;;;;;;;4.97;1.17;;;;;;;9.33;98.36;98764.78;5029975;28;20034;-68
2023/01/09 03:22:21;;;;;;;1.30;1.20;;;;;;;9.40;97.90;98770.13;5030711;28;20061;-68
2023/01/09 03:24:46;;;;;;;1.45;1.33;;;;;;;9.32;97.28;98760.56;5024931;28;20176;-69
2023/01/09 03:27:12;;;;;;;1.40;1.20;;;;;;;9.31;97.84;98754.41;5034926;28;20457;-68
2023/01/09 03:29:38;;;;;;;1.30;1.00;;;;;;;9.50;96.44;98753.16;5034200;28;20030;-68
2023/01/09 03:32:04;;;;;;;0.90;0.90;;;;;;;9.56;96.63;98763.09;5031262;28;20080;-68
2023/01/09 03:34:29;;;;;;;1.55;1.33;;;;;;;9.46;96.39;98758.56;5025876;28;21621;-67
2023/01/09 03:36:55;;;;;;;2.03;1.20;;;;;;;9.41;96.42;98761.66;5031155;28;20041;-68
2023/01/09 03:39:20;;;;;;;3.63;1.52;;;;;;;9.29;97.43;98759.41;5031830;28;20036;-68
2023/01/09 03:41:46;;;;;;;2.45;1.40;;;;;;;9.38;97.84;98757.09;5029149;28;20037;-69
2023/01/09 03:44:11;;;;;;;1.20;1.10;;;;;;;9.33;97.53;98759.44;5028846;28;20037;-69
2023/01/09 03:46:36;;;;;;;1.38;1.05;;;;;;;9.36;96.87;98769.38;5028021;28;20095;-69
2023/01/09 03:49:02;;;;;;;1.65;1.35;;;;;;;9.28;97.81;98767.88;5039185;28;20076;-68
2023/01/09 03:51:27;;;;;;;1.30;1.20;;;;;;;9.38;97.26;98764.38;5047630;28;20040;-69
2023/01/09 03:53:53;;;;;;;1.85;1.17;;;;;;;9.37;97.05;98760.16;5041592;28;20036;-68
2023/01/09 03:56:18;;;;;;;1.50;1.05;;;;;;;9.37;97.27;98760.91;5032109;28;20494;-68
2023/01/09 03:58:44;;;;;;;1.92;1.45;;;;;;;9.34;97.37;98755.56;5030871;28;20413;-69
2023/01/09 04:01:11;;;;;;;1.55;1.10;;;;;;;9.22;97.13;98759.47;5031999;28;20040;-68
2023/01/09 04:03:57;;;;;;;2.08;1.17;;;;;;;9.45;97.60;98754.34;5031438;28;20478;-68
2023/01/09 04:06:23;;;;;;;2.13;1.38;;;;;;;9.47;96.96;98748.56;4990540;28;20044;-67
2023/01/09 04:08:48;;;;;;;1.05;1.00;;;;;;;9.47;96.87;98753.94;4989950;28;20046;-69
2023/01/09 04:11:16;;;;;;;1.85;1.13;;;;;;;9.35;96.66;98749.06;4987778;28;20061;-67
2023/01/09 04:13:41;;;;;;;2.70;1.40;;;;;;;9.36;97.14;98756.72;4970519;28;20042;-69
2023/01/09 04:16:07;;;;;;;1.10;0.93;;;;;;;9.47;97.11;98748.56;4984830;28;20543;-67
2023/01/09 04:18:32;;;;;;;1.98;1.10;;;;;;;9.40;97.38;98751.31;4993022;28;20178;-68
2023/01/09 04:20:57;;;;;;;2.17;1.30;;;;;;;9.54;96.27;98749.28;4989519;28;20097;-67
2023/01/09 04:23:23;;;;;;;1.60;1.10;;;;;;;9.40;97.28;98743.25;4989465;28;20046;-68
2023/01/09 04:25:48;;;;;;;3.50;1.48;;;;;;;9.27;99.26;98739.50;4980910;28;20041;-68
2023/01/09 04:28:14;;;;;;;1.45;1.00;;;;;;;9.41;98.88;98731.34;4999708;28;20046;-69
2023/01/09 04:30:39;;;;;;;1.33;1.08;;;;;;;9.26;98.89;98736.03;4982420;28;20542;-70
2023/01/09 04:33:04;;;;;;;1.15;1.05;;;;;;;9.27;100.00;98729.50;4989090;28;20045;-70
2023/01/09 04:35:30;;;;;;;1.83;1.05;;;;;;;9.31;98.88;98729.50;4990548;28;20057;-68
2023/01/09 04:37:55;;;;;;;1.20;1.10;;;;;;;9.08;100.00;98741.50;5000065;28;20125;-68
2023/01/09 04:42:51;;;;;;;1.00;0.80;;;;;;;9.27;100.00;98734.13;5020129;22;20049;-69
2023/01/09 04:45:16;;;;;;;1.20;1.10;;;;;;;9.46;99.98;98726.34;5050020;28;20397;-69
2023/01/09 04:47:42;;;;;;;1.38;1.15;;;;;;;9.46;100.00;98730.94;5050445;28;20607;-69
2023/01/09 04:50:10;;;;;;;1.27;1.17;;;;;;;9.38;99.84;98726.75;5049349;28;20082;-69
2023/01/09 04:52:35;;;;;;;2.67;1.05;;;;;;;9.37;99.16;98746.75;5047458;28;20029;-71
2023/01/09 04:55:01;;;;;;;0.82;0.73;;;;;;;9.40;100.00;98733.28;5050773;28;20078;-71
2023/01/09 04:57:26;;;;;;;1.50;1.10;;;;;;;9.40;99.49;98730.59;5052238;28;20508;-71
2023/01/09 04:59:51;;;;;;;1.15;0.90;;;;;;;9.41;100.00;98739.41;5030251;28;20037;-72
2023/01/09 05:02:17;;;;;;;2.00;1.00;;;;;;;9.47;99.54;98735.13;5051225;28;20041;-71
2023/01/09 05:04:42;;;;;;;1.02;0.90;;;;;;;9.50;99.52;98731.69;5051905;28;20036;-70
2023/01/09 05:07:08;;;;;;;1.15;1.05;;;;;;;9.35;100.00;98722.94;5052163;28;20508;-70
2023/01/09 05:09:34;;;;;;;1.85;1.23;;;;;;;9.50;100.00;98724.38;5072489;28;20143;-71
2023/01/09 05:12:00;;;;;;;1.52;1.20;;;;;;;9.50;100.00;98729.00;5051513;28;20033;-70
2023/01/09 05:14:25;;;;;;;0.85;0.85;;;;;;;9.43;100.00;98716.38;5047390;28;20673;-71
2023/01/09 05:16:51;;;;;;;1.65;1.15;;;;;;;9.53;99.35;98726.28;5050050;28;20119;-70
2023/01/09 05:19:16;;;;;;;0.73;0.73;;;;;;;9.41;100.00;98721.38;5051434;28;20021;-70
2023/01/09 05:21:42;;;;;;;1.00;0.93;;;;;;;9.56;99.82;98732.78;5049632;28;20039;-71
2023/01/09 05:24:07;;;;;;;1.30;0.95;;;;;;;9.52;99.93;98724.75;5049556;28;20413;-70
2023/01/09 05:26:33;;;;;;;1.80;1.42;;;;;;;9.37;100.00;98720.63;5051124;28;20033;-70
2023/01/09 05:28:59;;;;;;;1.15;1.05;;;;;;;9.45;100.00;98724.03;5044804;28;20129;-70
2023/01/09 05:31:25;;;;;;;2.03;1.27;;;;;;;9.41;100.00;98725.97;5062944;28;20481;-71
2023/01/09 05:33:51;;;;;;;0.75;0.75;;;;;;;9.47;100.00;98729.75;5062904;28;20131;-71
2023/01/09 05:36:18;;;;;;;1.02;0.93;;;;;;;9.64;100.00;98731.59;5050622;28;20111;-71
2023/01/09 05:38:43;;;;;;;1.23;0.90;;;;;;;9.61;100.00;98726.97;5051260;28;20070;-71
2023/01/09 05:41:09;;;;;;;1.05;1.05;;;;;;;9.56;100.00;98724.72;5039318;28;20045;-71
2023/01/09 05:43:34;;;;;;;1.35;0.75;;;;;;;9.64;100.00;98729.63;5027496;28;20041;-71
2023/01/09 05:46:00;;;;;;;1.35;1.20;;;;;;;9.60;100.00;98730.84;5023993;28;20383;-71
2023/01/09 05:48:25;;;;;;;0.80;0.80;;;;;;;9.62;100.00;98734.66;5025569;28;20021;-71
2023/01/09 05:50:51;;;;;;;0.68;0.68;;;;;;;9.70;100.00;98724.59;5026437;28;20037;-72
2023/01/09 05:53:16;;;;;;;1.23;0.77;;;;;;;9.67;100.00;98720.03;5028854;28;20038;-71
2023/01/09 05:55:42;;;;;;;0.60;0.60;;;;;;;9.59;100.00;98732.75;5026467;28;20398;-72
2023/01/09 05:58:07;;;;;;;1.48;0.80;;;;;;;9.61;100.00;98724.28;5029571;28;20375;-71
2023/01/09 06:00:33;;;;;;;0.75;0.70;;;;;;;9.71;100.00;98731.53;5024669;28;20025;-71
2023/01/09 06:02:58;;;;;;;0.95;0.65;;;;;;;9.77;100.00;98738.00;5032810;28;20032;-71
2023/01/09 06:05:24;;;;;;;1.98;1.10;;;;;;;9.75;100.00;98734.94;5045989;28;20041;-71
2023/01/09 06:07:49;;;;;;;0.50;0.50;;;;;;;9.73;100.00;98734.56;5021479;28;20069;-71
2023/01/09 06:10:15;;;;;;;0.95;0.80;;;;;;;9.63;100.00;98730.03;5027078;28;20033;-72
2023/01/09 06:12:43;;;;;;;0.60;0.60;;;;;;;9.71;100.00;98728.84;5027168;28;20025;-72
2023/01/09 06:15:09;;;;;;;1.88;0.60;;;;;;;9.69;100.00;98728.47;5033049;28;20033;-71
2023/01/09 06:17:35;;;;;;;0.60;0.60;;;;;;;9.66;100.00;98721.94;5031657;28;20047;-72
2023/01/09 06:20:00;;;;;;;1.08;0.70;;;;;;;9.71;100.00;98731.53;5031883;28;20040;-71
2023/01/09 06:22:25;;;;;;;0.50;0.50;;;;;;;9.78;100.00;98732.22;5030560;28;20041;-72
2023/01/09 06:24:51;;;;;;;1.52;0.85;;;;;;;9.78;100.00;98737.59;5026539;28;20806;-71
2023/01/09 06:27:16;;;;;;;0.80;0.68;;;;;;;9.83;100.00;98747.19;5030646;28;20568;-72
2023/01/09 06:29:42;;;;;;;0.60;0.60;;;;;;;9.82;100.00;98751.78;5025766;28;20100;-72
2023/01/09 06:32:07;;;;;;;1.88;1.27;;;;;;;9.74;100.00;98746.84;5025777;28;20037;-72
2023/01/09 06:34:33;;;;;;;1.25;0.77;;;;;;;9.79;100.00;98741.06;5023996;28;20045;-71
2023/01/09 06:36:58;;;;;;;1.20;0.88;;;;;;;9.81;100.00;98741.44;5046835;28;20547;-71
2023/01/09 06:39:24;;;;;;;0.93;0.63;;;;;;;9.96;100.00;98748.22;5026936;28;20631;-71
2023/01/09 06:41:49;;;;;;;0.95;0.70;;;;;;;10.00;100.00;98762.38;5045866;28;20115;-71
2023/01/09 06:44:15;;;;;;;0.80;0.80;;;;;;;9.80;100.00;98745.25;5062551;28;20032;-71
2023/01/09 06:46:40;;;;;;;0.95;0.80;;;;;;;9.85;100.00;98747.53;5065571;28;20032;-71
2023/01/09 06:49:08;;;;;;;0.70;0.65;;;;;;;9.84;100.00;98767.50;5058992;28;20037;-71
2023/01/09 06:51:33;;;;;;;1.35;0.70;;;;;;;9.85;100.00;98760.97;5065823;28;20530;-71
2023/01/09 06:53:59;;;;;;;1.00;0.88;;;;;;;9.85;100.00;98760.97;5071818;28;20032;-71
2023/01/09 06:56:24;;;;;;;0.40;0.40;;;;;;;9.83;100.00;98760.63;5071782;28;20185;-71
2023/01/09 06:58:49;;;;;;;0.38;0.38;;;;;;;9.91;100.00;98751.34;5072777;28;20024;-71
2023/01/09 07:01:15;;;;;;;0.40;0.40;;;;;;;9.91;100.00;98757.47;5073349;28;20705;-71
2023/01/09 07:03:41;;;;;;;0.95;0.57;;;;;;;9.88;100.00;98757.50;5072662;28;20044;-69
2023/01/09 07:06:07;;;;;;;1.23;0.90;;;;;;;9.93;100.00;98763.19;5073715;28;20029;-70
2023/01/09 07:08:33;;;;;;;0.68;0.68;;;;;;;9.90;100.00;98769.38;5073896;28;20032;-70
2023/01/09 07:10:58;;;;;;;1.23;0.73;;;;;;;9.94;100.00;98770.13;5065480;28;20107;-70
2023/01/09 07:13:24;;;;;;;1.48;1.00;;;;;;;9.89;100.00;98772.47;5073215;28;20108;-70
2023/01/09 07:15:49;;;;;;;0.65;0.65;;;;;;;9.81;100.00;98781.75;5073666;28;20028;-70
2023/01/09 07:18:14;;;;;;;0.73;0.73;;;;;;;9.75;100.00;98781.41;5073208;28;20473;-70
2023/01/09 07:20:41;;;;;;;1.02;0.65;;;;;;;9.78;100.00;98783.28;5070853;28;20040;-70
2023/01/09 07:23:10;;;;;;;1.02;0.70;;;;;;;9.75;100.00;98784.09;5072261;28;20024;-70
2023/01/09 07:25:41;;;;;;;1.52;0.60;;;;;;;9.75;100.00;98797.53;5058121;28;20036;-70
2023/01/09 07:28:06;;;;;;;0.98;0.60;;;;;;;9.79;100.00;98790.19;5072536;28;20036;-70
2023/01/09 07:30:32;;;;;;;0.90;0.68;;;;;;;9.77;100.00;98805.97;5073482;28;20040;-70
2023/01/09 07:32:58;;;;;;;0.70;0.60;;;;;;;9.80;100.00;98810.53;5072562;28;20024;-70
2023/01/09 07:35:23;;;;;;;0.73;0.73;;;;;;;9.74;100.00;98820.19;5055633;28;20032;-69
2023/01/09 07:37:49;;;;;;;1.75;0.82;;;;;;;9.71;100.00;98814.84;5068397;28;20551;-70
2023/01/09 07:40:14;;;;;;;0.57;0.57;;;;;;;9.79;100.00;98827.06;5072763;28;20510;-70
2023/01/09 07:42:40;;;;;;;0.88;0.65;;;;;;;9.81;100.00;98824.75;5072284;28;20076;-70
2023/01/09 07:45:06;;;;;;;0.60;0.60;;;;;;;9.77;100.00;98838.22;5068764;28;20036;-70
2023/01/09 07:47:31;;;;;;;1.38;0.90;;;;;;;9.78;100.00;98839.75;5068485;28;20116;-70
2023/01/09 07:49:56;;;;;;;0.80;0.80;;;;;;;9.79;100.00;98845.91;5071794;28;20047;-70
2023/01/09 07:52:22;;;;;;;1.00;0.88;;;;;;;9.83;100.00;98852.75;5071485;28;20024;-70
2023/01/09 07:54:48;;;;;;;1.25;0.70;;;;;;;9.80;100.00;98850.09;5060382;28;20497;-69
2023/01/09 07:57:13;;;;;;;0.90;0.60;;;;;;;9.74;100.00;98851.66;5079314;28;20070;-69
2023/01/09 07:59:38;;;;;;;0.70;0.70;;;;;;;9.74;100.00;98854.34;5072495;28;20028;-69
2023/01/09 08:02:05;;;;;;;1.55;1.13;;;;;;;9.75;100.00;98855.91;5072041;28;20083;-70
2023/01/09 08:04:31;;;;;;;1.67;1.08;;;;;;;9.77;100.00;98856.28;5053716;28;20127;-70
2023/01/09 08:06:57;;;;;;;1.02;0.88;;;;;;;9.73;100.00;98863.59;5072840;28;20103;-70
2023/01/09 08:09:22;;;;;;;1.45;1.20;;;;;;;9.74;100.00;98870.47;5071344;28;20489;-70
2023/01/09 08:11:49;;;;;;;1.58;0.90;;;;;;;9.80;100.00;98866.22;5071445;28;20100;-69
2023/01/09 08:14:15;;;;;;;1.15;1.05;;;;;;;9.80;100.00;98875.06;5072064;28;20063;-70
2023/01/09 08:16:40;;;;;;;1.38;1.08;;;;;;;9.82;100.00;98880.03;5054404;28;20059;-69
2023/01/09 08:19:06;;;;;;;1.38;1.00;;;;;;;9.84;100.00;98881.19;5054496;28;20033;-69
2023/01/09 08:21:31;;;;;;;1.55;1.20;;;;;;;9.81;100.00;98873.88;5049506;28;20032;-70
2023/01/09 08:23:57;;;;;;;1.55;1.00;;;;;;;9.82;100.00;98880.81;5063250;28;20028;-70
2023/01/09 08:26:22;;;;;;;1.02;0.90;;;;;;;9.84;100.00;98883.09;5062606;28;20029;-70
2023/01/09 08:28:48;;;;;;;2.42;1.20;;;;;;;9.83;100.00;98876.22;5067188;28;20086;-70
2023/01/09 08:31:14;;;;;;;2.30;1.40;;;;;;;9.80;100.00;98879.66;5070166;28;20024;-70
2023/01/09 08:33:39;;;;;;;1.48;1.20;;;;;;;9.73;100.00;98887.78;5071945;28;20492;-70
2023/01/09 08:36:05;;;;;;;1.77;1.00;;;;;;;9.77;100.00;98891.22;5054356;28;20037;-70
2023/01/09 08:38:31;;;;;;;3.85;1.33;;;;;;;9.82;100.00;98888.88;5066975;28;20033;-70
2023/01/09 08:40:56;;;;;;;1.52;1.23;;;;;;;9.74;100.00;98887.38;5068868;28;20543;-70
2023/01/09 08:49:02;;;;;;;1.95;1.60;;;;;;;9.71;100.00;98901.63;5071695;28;20060;-70
2023/01/09 08:51:28;;;;;;;2.00;1.17;;;;;;;9.70;100.00;98907.34;5070996;28;20082;-70
2023/01/09 08:53:53;;;;;;;2.47;1.63;;;;;;;9.68;100.00;98909.66;5064114;28;20025;-70
2023/01/09 08:56:19;;;;;;;2.50;1.83;;;;;;;9.69;100.00;98908.53;5053408;28;20051;-70
2023/01/09 08:58:44;;;;;;;2.40;1.67;;;;;;;9.73;100.00;98918.13;5051021;28;20020;-70
2023/01/09 09:01:10;;;;;;;2.33;1.60;;;;;;;9.77;100.00;98918.88;5075533;28;20066;-70
2023/01/09 09:03:35;;;;;;;4.70;2.00;;;;;;;9.81;100.00;98916.91;5079177;28;20040;-70
2023/01/09 09:06:01;;;;;;;4.65;1.83;;;;;;;9.79;100.00;98927.28;5070641;28;20032;-69
2023/01/09 09:08:26;;;;;;;5.57;2.13;;;;;;;9.76;100.00;98933.44;5070449;28;20450;-70
2023/01/09 09:10:52;;;;;;;8.00;2.00;;;;;;;9.85;100.00;98930.34;5055931;28;20435;-70
2023/01/09 09:13:17;;;;;;;3.58;2.25;;;;;;;9.94;100.00;98928.75;5070589;28;20079;-70
2023/01/09 09:15:43;;;;;;;3.13;2.20;;;;;;;10.00;100.00;98939.88;5070553;28;20032;-69
2023/01/09 09:18:08;;;;;;;5.00;2.67;;;;;;;10.03;100.00;98929.09;5071050;28;20111;-70
2023/01/09 09:20:36;;;;;;;3.97;2.95;;;;;;;9.98;99.99;98932.19;5069184;28;20649;-70
2023/01/09 09:23:02;;;;;;;5.53;2.67;;;;;;;9.98;100.00;98931.41;5035834;28;20605;-70
2023/01/09 09:25:28;;;;;;;4.45;2.30;;;;;;;9.97;99.48;98935.25;5070899;28;20101;-70
2023/01/09 09:27:56;;;;;;;3.60;2.22;;;;;;;10.06;99.84;98943.69;5071120;28;20103;-70
2023/01/09 09:30:23;;;;;;;3.10;2.30;;;;;;;10.12;100.00;98944.81;5049893;28;20063;-71
2023/01/09 09:32:49;;;;;;;2.47;1.90;;;;;;;10.16;99.83;98947.50;5070035;28;20052;-70
2023/01/09 09:35:19;;;;;;;8.02;2.50;;;;;;;10.21;99.49;98958.59;5070496;28;20120;-70
2023/01/09 09:37:56;;;;;;;4.18;2.65;;;;;;;10.21;99.61;98952.44;5070783;28;20043;-69
2023/01/09 09:40:32;;;;;;;2.60;1.83;;;;;;;10.28;99.02;98961.22;5070744;28;20031;-69
2023/01/09 09:46:28;;;;;;;4.03;2.42;;;;;;;10.35;98.79;98963.13;5071576;28;20061;-69
2023/01/09 09:49:00;;;;;;;4.97;2.53;;;;;;;10.26;98.23;98968.94;5070660;28;20400;-69
2023/01/09 09:51:44;;;;;;;;;;;;;;;10.30;98.68;98975.06;5071928;28;20397;-70
2023/01/09 09:54:17;;;;;;;2.40;1.67;;;;;;;10.22;98.35;98970.88;5068241;28;19922;-70
2023/01/09 09:56:49;;;;;;;7.10;2.60;;;;;;;10.14;97.43;98984.78;5070133;28;20036;-69
2023/01/09 09:59:19;;;;;;;5.00;2.33;;;;;;;10.14;98.48;98977.47;5068310;28;20082;-69
2023/01/09 10:01:57;;;;;;;11.35;2.97;;;;;;;10.16;97.99;98987.84;5069242;28;20059;-70
2023/01/09 10:04:27;;;;;;;4.88;2.35;;;;;;;10.00;98.58;98988.25;5047334;28;20051;-70
2023/01/09 10:07:22;;;;;;;2.88;1.88;;;;;;;10.03;98.46;98990.16;5066708;28;20123;-70
2023/01/09 10:09:54;;;;;;;7.20;2.38;;;;;;;10.09;98.45;98987.81;5047640;28;20159;-70
2023/01/09 10:12:29;;;;;;;5.72;2.28;;;;;;;10.01;98.36;98993.25;5066411;28;20067;-70
2023/01/09 10:14:57;;;;;;;3.40;2.28;;;;;;;10.10;98.00;99002.84;5066426;28;20384;-70
2023/01/09 10:18:06;;;;;;;3.28;1.67;;;;;;;9.90;97.63;98994.44;5067863;28;20036;-70
2023/01/09 10:20:53;;;;;;;3.83;1.90;;;;;;;9.89;97.89;98995.63;5055124;28;20044;-70
2023/01/09 10:23:26;;;;;;;4.88;1.83;;;;;;;9.87;97.20;98993.31;5070001;28;20044;-70
2023/01/09 10:26:10;;;;;;;4.72;1.92;;;;;;;9.89;96.73;98998.31;5046495;28;20032;-70
2023/01/09 10:29:13;;;;;;;6.20;1.80;;;;;;;9.88;96.80;98999.44;5066944;28;20028;-70
2023/01/09 10:31:53;;;;;;;4.95;2.08;;;;;;;9.79;96.92;99007.19;5068201;28;20035;-70
2023/01/09 10:34:25;;;;;;;6.35;2.25;;;;;;;9.90;96.38;98997.13;5054144;28;20041;-70
2023/01/09 10:37:52;;;;;;;5.97;1.90;;;;;;;9.97;96.34;99010.53;5064980;28;20036;-70
2023/01/09 10:40:34;;;;;;;6.38;1.80;;;;;;;9.98;96.83;99009.41;5006962;28;20034;-70
2023/01/09 10:43:06;;;;;;;3.72;2.28;;;;;;;10.09;95.85;99015.50;5066319;22;20046;-70
2023/01/09 10:45:53;;;;;;;3.72;2.30;;;;;;;10.04;94.02;99019.34;5075187;28;20399;-69
2023/01/09 10:48:24;;;;;;;3.72;1.83;;;;;;;9.82;94.54;99011.75;5043358;28;20047;-70
2023/01/09 10:50:50;;;;;;;;;;;;;;;9.77;95.18;99007.56;5069043;28;20579;-70
2023/01/09 10:53:20;;;;;;;4.47;1.48;;;;;;;9.80;94.83;99009.47;5061627;28;19916;-68
2023/01/09 10:55:47;;;;;;;2.65;1.83;;;;;;;9.87;94.66;99003.31;5064442;28;20043;-70
2023/01/09 10:58:17;;;;;;;3.97;2.17;;;;;;;9.92;95.28;99008.28;5047420;28;20135;-70
2023/01/09 11:00:44;;;;;;;2.77;1.87;;;;;;;9.96;93.75;99011.72;5066121;28;20036;-70
2023/01/09 11:03:17;;;;;;;7.35;2.05;;;;;;;9.94;93.92;99003.28;5062560;28;20302;-70
2023/01/09 11:05:47;;;;;;;3.53;2.00;;;;;;;10.05;93.87;99009.34;5045575;28;20040;-69
2023/01/09 11:08:32;;;;;;;3.08;1.70;;;;;;;10.14;93.55;99019.72;5045165;28;20065;-69
2023/01/09 11:11:00;;;;;;;3.60;1.98;;;;;;;10.12;93.54;99014.75;5045028;28;20855;-69
2023/01/09 11:13:32;;;;;;;4.88;1.92;;;;;;;10.15;93.52;99022.03;5059549;28;20056;-69
2023/01/09 11:16:09;;;;;;;4.43;2.17;;;;;;;10.14;93.73;99025.13;5063448;28;20036;-68
2023/01/09 11:18:39;;;;;;;3.17;2.00;;;;;;;10.23;94.37;99015.47;5065858;28;20035;-69
2023/01/09 11:21:24;;;;;;;2.15;1.65;;;;;;;10.22;93.65;99010.47;5063227;28;20031;-69
2023/01/09 11:23:49;;;;;;;6.82;1.90;;;;;;;10.22;93.60;99023.94;5063669;28;20039;-69
2023/01/09 11:26:27;;;;;;;3.05;1.70;;;;;;;10.17;93.31;99022.41;5068352;28;20032;-69
2023/01/09 11:29:13;;;;;;;5.20;2.40;;;;;;;10.26;93.76;99024.69;5065397;28;20033;-69
2023/01/09 11:31:40;;;;;;;3.72;1.70;;;;;;;10.32;93.38;99023.84;5062881;28;20032;-69
2023/01/09 11:34:18;;;;;;;4.97;2.22;;;;;;;10.39;93.48;99021.16;5060081;28;20045;-70
2023/01/09 11:36:44;;;;;;;4.75;2.15;;;;;;;10.40;93.44;99024.56;5064098;28;20086;-70
2023/01/09 11:39:32;;;;;;;3.75;1.98;;;;;;;10.41;93.64;99020.75;5064287;28;20036;-70
2023/01/09 11:42:00;;;;;;;2.78;1.55;;;;;;;10.51;92.96;99012.59;5062066;28;20040;-70
2023/01/09 11:44:29;;;;;;;5.05;2.35;;;;;;;10.48;93.32;99016.09;5052842;28;20131;-68
2023/01/09 11:46:54;;;;;;;3.58;1.80;;;;;;;10.46;93.14;99018.41;5072674;28;20037;-70
2023/01/09 11:49:24;;;;;;;1.98;1.60;;;;;;;10.52;92.82;99027.59;5072331;28;20051;-71
2023/01/09 11:52:11;;;;;;;3.40;1.50;;;;;;;10.62;92.06;99028.69;5070856;28;20073;-70
2023/01/09 11:54:40;;;;;;;9.30;2.00;;;;;;;10.52;92.98;99024.91;5067965;28;20028;-69
2023/01/09 11:57:09;;;;;;;3.58;1.77;;;;;;;10.62;93.00;99029.47;5072475;28;20032;-70
2023/01/09 11:59:34;;;;;;;5.75;2.15;;;;;;;10.64;92.63;99026.38;5071804;28;20078;-70
2023/01/09 12:02:29;;;;;;;4.80;1.88;;;;;;;10.64;91.96;99024.44;5072026;28;20024;-70
2023/01/09 12:04:59;;;;;;;7.25;2.28;;;;;;;10.64;91.34;99026.38;5076629;28;20123;-67